sensor_id;sensor_type;location;lat;lon;timestamp;temperature;humidity
33699;DHT22;20032;52.436;13.312;2024-02-15T00:02:35;9.40;99.90
33699;DHT22;20032;52.436;13.312;2024-02-15T00:05:01;9.50;99.90
33699;DHT22;20032;52.436;13.312;2024-02-15T00:07:26;9.50;99.90
33699;DHT22;20032;52.436;13.312;2024-02-15T00:09:52;9.50;99.90
33699;DHT22;20032;52.436;13.312;2024-02-15T00:12:19;9.50;99.90
33699;DHT22;20032;52.436;13.312;2024-02-15T00:14:44;9.50;99.90
33699;DHT22;20032;52.436;13.312;2024-02-15T00:17:10;9.50;99.90
33699;DHT22;20032;52.436;13.312;2024-02-15T00:19:37;9.50;99.90
33699;DHT22;20032;52.436;13.312;2024-02-15T00:22:04;9.50;99.90
33699;DHT22;20032;52.436;13.312;2024-02-15T00:24:30;9.50;99.90
33699;DHT22;20032;52.436;13.312;2024-02-15T00:26:56;9.60;99.90
33699;DHT22;20032;52.436;13.312;2024-02-15T00:29:21;9.60;99.90
33699;DHT22;20032;52.436;13.312;2024-02-15T00:31:47;9.60;99.90
33699;DHT22;20032;52.436;13.312;2024-02-15T00:34:13;9.60;99.90
33699;DHT22;20032;52.436;13.312;2024-02-15T00:36:42;9.60;99.90
33699;DHT22;20032;52.436;13.312;2024-02-15T00:39:09;9.50;99.90
33699;DHT22;20032;52.436;13.312;2024-02-15T00:41:35;9.60;99.90
33699;DHT22;20032;52.436;13.312;2024-02-15T00:44:00;9.60;99.90
33699;DHT22;20032;52.436;13.312;2024-02-15T00:46:25;9.60;99.90
33699;DHT22;20032;52.436;13.312;2024-02-15T00:48:54;9.70;99.90
33699;DHT22;20032;52.436;13.312;2024-02-15T00:51:20;9.60;99.90
33699;DHT22;20032;52.436;13.312;2024-02-15T00:53:45;9.60;99.90
33699;DHT22;20032;52.436;13.312;2024-02-15T00:56:11;9.70;99.90
33699;DHT22;20032;52.436;13.312;2024-02-15T00:58:36;9.60;99.90
33699;DHT22;20032;52.436;13.312;2024-02-15T01:01:02;9.60;99.90
33699;DHT22;20032;52.436;13.312;2024-02-15T01:03:28;9.60;99.90
33699;DHT22;20032;52.436;13.312;2024-02-15T01:05:53;9.50;99.90
33699;DHT22;20032;52.436;13.312;2024-02-15T01:08:19;9.60;99.90
33699;DHT22;20032;52.436;13.312;2024-02-15T01:10:45;9.60;99.90
33699;DHT22;20032;52.436;13.312;2024-02-15T01:13:11;9.60;99.90
33699;DHT22;20032;52.436;13.312;2024-02-15T01:15:37;9.60;99.90
33699;DHT22;20032;52.436;13.312;2024-02-15T01:18:04;9.50;99.90
33699;DHT22;20032;52.436;13.312;2024-02-15T01:20:30;9.50;99.90
33699;DHT22;20032;52.436;13.312;2024-02-15T01:22:56;9.50;99.90
33699;DHT22;20032;52.436;13.312;2024-02-15T01:25:21;9.50;99.90
33699;DHT22;20032;52.436;13.312;2024-02-15T01:27:47;9.50;99.90
33699;DHT22;20032;52.436;13.312;2024-02-15T01:30:13;9.40;99.90
33699;DHT22;20032;52.436;13.312;2024-02-15T01:32:39;9.40;99.90
33699;DHT22;20032;52.436;13.312;2024-02-15T01:35:07;9.50;99.90
33699;DHT22;20032;52.436;13.312;2024-02-15T01:37:33;9.50;99.90
33699;DHT22;20032;52.436;13.312;2024-02-15T01:39:58;9.40;99.90
33699;DHT22;20032;52.436;13.312;2024-02-15T01:42:24;9.50;99.90
33699;DHT22;20032;52.436;13.312;2024-02-15T01:44:49;9.50;99.90
33699;DHT22;20032;52.436;13.312;2024-02-15T01:47:17;9.50;99.90
33699;DHT22;20032;52.436;13.312;2024-02-15T01:49:44;9.50;99.90
33699;DHT22;20032;52.436;13.312;2024-02-15T01:52:10;9.50;99.90
33699;DHT22;20032;52.436;13.312;2024-02-15T01:54:36;9.50;99.90
33699;DHT22;20032;52.436;13.312;2024-02-15T01:57:04;9.50;99.90
33699;DHT22;20032;52.436;13.312;2024-02-15T01:59:30;9.50;99.90
33699;DHT22;20032;52.436;13.312;2024-02-15T02:01:56;9.50;99.90
33699;DHT22;20032;52.436;13.312;2024-02-15T02:04:22;9.50;99.90
33699;DHT22;20032;52.436;13.312;2024-02-15T02:06:47;9.50;99.90
33699;DHT22;20032;52.436;13.312;2024-02-15T02:09:13;9.50;99.90
33699;DHT22;20032;52.436;13.312;2024-02-15T02:11:40;9.50;99.90
33699;DHT22;20032;52.436;13.312;2024-02-15T02:14:06;9.50;99.90
33699;DHT22;20032;52.436;13.312;2024-02-15T02:16:32;9.50;99.90
33699;DHT22;20032;52.436;13.312;2024-02-15T02:18:58;9.50;99.90
33699;DHT22;20032;52.436;13.312;2024-02-15T02:21:25;9.50;99.90
33699;DHT22;20032;52.436;13.312;2024-02-15T02:23:58;9.50;99.90
33699;DHT22;20032;52.436;13.312;2024-02-15T02:26:26;9.50;99.90
33699;DHT22;20032;52.436;13.312;2024-02-15T02:28:51;9.50;99.90
33699;DHT22;20032;52.436;13.312;2024-02-15T02:31:21;9.60;99.90
33699;DHT22;20032;52.436;13.312;2024-02-15T02:33:52;9.50;99.90
33699;DHT22;20032;52.436;13.312;2024-02-15T02:36:18;9.50;99.90
33699;DHT22;20032;52.436;13.312;2024-02-15T02:38:44;9.50;99.90
33699;DHT22;20032;52.436;13.312;2024-02-15T02:41:11;9.50;99.90
33699;DHT22;20032;52.436;13.312;2024-02-15T02:43:39;9.50;99.90
33699;DHT22;20032;52.436;13.312;2024-02-15T02:46:04;9.50;99.90
33699;DHT22;20032;52.436;13.312;2024-02-15T02:48:31;9.60;99.90
33699;DHT22;20032;52.436;13.312;2024-02-15T02:50:57;9.60;99.90
33699;DHT22;20032;52.436;13.312;2024-02-15T02:53:23;9.60;99.90
33699;DHT22;20032;52.436;13.312;2024-02-15T02:55:49;9.60;99.90
33699;DHT22;20032;52.436;13.312;2024-02-15T02:58:15;9.60;99.90
33699;DHT22;20032;52.436;13.312;2024-02-15T03:00:40;9.60;99.90
33699;DHT22;20032;52.436;13.312;2024-02-15T03:03:06;9.60;99.90
33699;DHT22;20032;52.436;13.312;2024-02-15T03:05:31;9.60;99.90
33699;DHT22;20032;52.436;13.312;2024-02-15T03:07:57;9.60;99.90
33699;DHT22;20032;52.436;13.312;2024-02-15T03:10:22;9.60;99.90
33699;DHT22;20032;52.436;13.312;2024-02-15T03:12:49;9.60;99.90
33699;DHT22;20032;52.436;13.312;2024-02-15T03:15:16;9.60;99.90
33699;DHT22;20032;52.436;13.312;2024-02-15T03:17:43;9.60;99.90
33699;DHT22;20032;52.436;13.312;2024-02-15T03:20:09;9.60;99.90
33699;DHT22;20032;52.436;13.312;2024-02-15T03:22:38;9.60;99.90
33699;DHT22;20032;52.436;13.312;2024-02-15T03:25:05;9.60;99.90
33699;DHT22;20032;52.436;13.312;2024-02-15T03:27:33;9.60;99.90
33699;DHT22;20032;52.436;13.312;2024-02-15T03:29:59;9.60;99.90
33699;DHT22;20032;52.436;13.312;2024-02-15T03:32:25;9.60;99.90
33699;DHT22;20032;52.436;13.312;2024-02-15T03:34:51;9.60;99.90
33699;DHT22;20032;52.436;13.312;2024-02-15T03:37:17;9.60;99.90
33699;DHT22;20032;52.436;13.312;2024-02-15T03:39:43;9.60;99.90
33699;DHT22;20032;52.436;13.312;2024-02-15T03:42:09;9.60;99.90
33699;DHT22;20032;52.436;13.312;2024-02-15T03:44:35;9.60;99.90
33699;DHT22;20032;52.436;13.312;2024-02-15T03:47:01;9.70;99.90
33699;DHT22;20032;52.436;13.312;2024-02-15T03:49:26;9.60;99.90
33699;DHT22;20032;52.436;13.312;2024-02-15T03:51:51;9.60;99.90
33699;DHT22;20032;52.436;13.312;2024-02-15T03:54:20;9.60;99.90
33699;DHT22;20032;52.436;13.312;2024-02-15T03:56:49;9.60;99.90
33699;DHT22;20032;52.436;13.312;2024-02-15T03:59:19;9.60;99.90
33699;DHT22;20032;52.436;13.312;2024-02-15T04:01:53;9.60;99.90
33699;DHT22;20032;52.436;13.312;2024-02-15T04:04:18;9.60;99.90
33699;DHT22;20032;52.436;13.312;2024-02-15T04:06:47;9.70;99.90
33699;DHT22;20032;52.436;13.312;2024-02-15T04:09:12;9.70;99.90
33699;DHT22;20032;52.436;13.312;2024-02-15T04:11:38;9.70;99.90
33699;DHT22;20032;52.436;13.312;2024-02-15T04:14:03;9.70;99.90
33699;DHT22;20032;52.436;13.312;2024-02-15T04:16:29;9.60;99.90
33699;DHT22;20032;52.436;13.312;2024-02-15T04:18:56;9.70;99.90
33699;DHT22;20032;52.436;13.312;2024-02-15T04:21:23;9.70;99.90
33699;DHT22;20032;52.436;13.312;2024-02-15T04:23:49;9.70;99.90
33699;DHT22;20032;52.436;13.312;2024-02-15T04:26:14;9.70;99.90
33699;DHT22;20032;52.436;13.312;2024-02-15T04:28:40;9.70;99.90
33699;DHT22;20032;52.436;13.312;2024-02-15T04:31:07;9.70;99.90
33699;DHT22;20032;52.436;13.312;2024-02-15T04:33:34;9.70;99.90
33699;DHT22;20032;52.436;13.312;2024-02-15T04:36:00;9.70;99.90
33699;DHT22;20032;52.436;13.312;2024-02-15T04:38:29;9.70;99.90
33699;DHT22;20032;52.436;13.312;2024-02-15T04:40:55;9.70;99.90
33699;DHT22;20032;52.436;13.312;2024-02-15T04:43:21;9.70;99.90
33699;DHT22;20032;52.436;13.312;2024-02-15T04:45:48;9.80;99.90
33699;DHT22;20032;52.436;13.312;2024-02-15T04:48:13;9.80;99.90
33699;DHT22;20032;52.436;13.312;2024-02-15T04:50:39;9.80;99.90
33699;DHT22;20032;52.436;13.312;2024-02-15T04:53:08;9.70;99.90
33699;DHT22;20032;52.436;13.312;2024-02-15T04:55:34;9.70;99.90
33699;DHT22;20032;52.436;13.312;2024-02-15T04:58:00;9.70;99.90
33699;DHT22;20032;52.436;13.312;2024-02-15T05:00:26;9.70;99.90
33699;DHT22;20032;52.436;13.312;2024-02-15T05:02:52;9.70;99.90
33699;DHT22;20032;52.436;13.312;2024-02-15T05:05:17;9.80;99.90
33699;DHT22;20032;52.436;13.312;2024-02-15T05:07:43;9.80;99.90
33699;DHT22;20032;52.436;13.312;2024-02-15T05:10:09;9.80;99.90
33699;DHT22;20032;52.436;13.312;2024-02-15T05:12:35;9.80;99.90
33699;DHT22;20032;52.436;13.312;2024-02-15T05:15:01;9.80;99.90
33699;DHT22;20032;52.436;13.312;2024-02-15T05:17:27;9.70;99.90
33699;DHT22;20032;52.436;13.312;2024-02-15T05:19:55;9.70;99.90
33699;DHT22;20032;52.436;13.312;2024-02-15T05:22:25;9.70;99.90
33699;DHT22;20032;52.436;13.312;2024-02-15T05:24:54;9.70;99.90
33699;DHT22;20032;52.436;13.312;2024-02-15T05:27:19;9.80;99.90
33699;DHT22;20032;52.436;13.312;2024-02-15T05:29:45;9.80;99.90
33699;DHT22;20032;52.436;13.312;2024-02-15T05:32:10;9.80;99.90
33699;DHT22;20032;52.436;13.312;2024-02-15T05:34:36;9.80;99.90
33699;DHT22;20032;52.436;13.312;2024-02-15T05:37:05;9.80;99.90
33699;DHT22;20032;52.436;13.312;2024-02-15T05:39:31;9.80;99.90
33699;DHT22;20032;52.436;13.312;2024-02-15T05:41:57;9.80;99.90
33699;DHT22;20032;52.436;13.312;2024-02-15T05:44:26;9.80;99.90
33699;DHT22;20032;52.436;13.312;2024-02-15T05:46:51;9.90;99.90
33699;DHT22;20032;52.436;13.312;2024-02-15T05:49:16;9.90;99.90
33699;DHT22;20032;52.436;13.312;2024-02-15T05:51:43;9.90;99.90
33699;DHT22;20032;52.436;13.312;2024-02-15T05:54:08;9.90;99.90
33699;DHT22;20032;52.436;13.312;2024-02-15T05:56:35;9.90;99.90
33699;DHT22;20032;52.436;13.312;2024-02-15T05:59:00;9.90;99.90
33699;DHT22;20032;52.436;13.312;2024-02-15T06:01:28;9.90;99.90
33699;DHT22;20032;52.436;13.312;2024-02-15T06:03:55;10.00;99.90
33699;DHT22;20032;52.436;13.312;2024-02-15T06:06:21;10.00;99.90
33699;DHT22;20032;52.436;13.312;2024-02-15T06:08:47;9.90;99.90
33699;DHT22;20032;52.436;13.312;2024-02-15T06:11:14;9.80;99.90
33699;DHT22;20032;52.436;13.312;2024-02-15T06:13:44;9.80;99.90
33699;DHT22;20032;52.436;13.312;2024-02-15T06:16:11;9.80;99.90
33699;DHT22;20032;52.436;13.312;2024-02-15T06:18:36;9.90;99.90
33699;DHT22;20032;52.436;13.312;2024-02-15T06:21:03;9.90;99.90
33699;DHT22;20032;52.436;13.312;2024-02-15T06:23:29;9.90;99.90
33699;DHT22;20032;52.436;13.312;2024-02-15T06:25:56;10.00;99.90
33699;DHT22;20032;52.436;13.312;2024-02-15T06:28:23;10.00;99.90
33699;DHT22;20032;52.436;13.312;2024-02-15T06:31:10;10.00;99.90
33699;DHT22;20032;52.436;13.312;2024-02-15T06:33:55;10.00;99.90
33699;DHT22;20032;52.436;13.312;2024-02-15T06:36:48;10.00;99.90
33699;DHT22;20032;52.436;13.312;2024-02-15T06:39:33;10.00;99.90
33699;DHT22;20032;52.436;13.312;2024-02-15T06:42:07;10.00;99.90
33699;DHT22;20032;52.436;13.312;2024-02-15T06:44:33;10.00;99.90
33699;DHT22;20032;52.436;13.312;2024-02-15T06:46:58;10.00;99.90
33699;DHT22;20032;52.436;13.312;2024-02-15T06:49:25;10.00;99.90
33699;DHT22;20032;52.436;13.312;2024-02-15T06:51:51;10.10;99.90
33699;DHT22;20032;52.436;13.312;2024-02-15T06:54:16;10.10;99.90
33699;DHT22;20032;52.436;13.312;2024-02-15T06:56:43;10.10;99.90
33699;DHT22;20032;52.436;13.312;2024-02-15T06:59:12;10.10;99.90
33699;DHT22;20032;52.436;13.312;2024-02-15T07:01:41;10.10;99.90
33699;DHT22;20032;52.436;13.312;2024-02-15T07:04:06;10.10;99.90
33699;DHT22;20032;52.436;13.312;2024-02-15T07:06:31;10.20;99.90
33699;DHT22;20032;52.436;13.312;2024-02-15T07:08:57;10.10;99.90
33699;DHT22;20032;52.436;13.312;2024-02-15T07:11:23;10.10;99.90
33699;DHT22;20032;52.436;13.312;2024-02-15T07:13:49;10.10;99.90
33699;DHT22;20032;52.436;13.312;2024-02-15T07:16:18;10.20;99.90
33699;DHT22;20032;52.436;13.312;2024-02-15T07:18:43;10.20;99.90
33699;DHT22;20032;52.436;13.312;2024-02-15T07:21:11;10.20;99.90
33699;DHT22;20032;52.436;13.312;2024-02-15T07:23:39;10.20;99.90
33699;DHT22;20032;52.436;13.312;2024-02-15T07:26:06;10.20;99.90
33699;DHT22;20032;52.436;13.312;2024-02-15T07:28:32;10.20;99.90
33699;DHT22;20032;52.436;13.312;2024-02-15T07:30:57;10.30;99.90
33699;DHT22;20032;52.436;13.312;2024-02-15T07:33:23;10.30;99.90
33699;DHT22;20032;52.436;13.312;2024-02-15T07:35:49;10.30;99.90
33699;DHT22;20032;52.436;13.312;2024-02-15T07:38:17;10.30;99.90
33699;DHT22;20032;52.436;13.312;2024-02-15T07:40:42;10.30;99.90
33699;DHT22;20032;52.436;13.312;2024-02-15T07:43:09;10.30;99.90
33699;DHT22;20032;52.436;13.312;2024-02-15T07:45:35;10.30;99.90
33699;DHT22;20032;52.436;13.312;2024-02-15T07:48:03;10.30;99.90
33699;DHT22;20032;52.436;13.312;2024-02-15T07:50:30;10.30;99.90
33699;DHT22;20032;52.436;13.312;2024-02-15T07:52:56;10.40;99.90
33699;DHT22;20032;52.436;13.312;2024-02-15T07:55:21;10.40;99.90
33699;DHT22;20032;52.436;13.312;2024-02-15T07:57:47;10.40;99.90
33699;DHT22;20032;52.436;13.312;2024-02-15T08:00:13;10.40;99.90
33699;DHT22;20032;52.436;13.312;2024-02-15T08:02:42;10.40;99.90
33699;DHT22;20032;52.436;13.312;2024-02-15T08:05:09;10.50;99.90
33699;DHT22;20032;52.436;13.312;2024-02-15T08:07:38;10.50;99.90
33699;DHT22;20032;52.436;13.312;2024-02-15T08:10:06;10.50;99.90
33699;DHT22;20032;52.436;13.312;2024-02-15T08:12:39;10.60;99.90
33699;DHT22;20032;52.436;13.312;2024-02-15T08:15:04;10.60;99.90
33699;DHT22;20032;52.436;13.312;2024-02-15T08:17:30;10.60;99.90
33699;DHT22;20032;52.436;13.312;2024-02-15T08:19:55;10.60;99.90
33699;DHT22;20032;52.436;13.312;2024-02-15T08:22:21;10.70;99.90
33699;DHT22;20032;52.436;13.312;2024-02-15T08:24:52;10.70;99.90
33699;DHT22;20032;52.436;13.312;2024-02-15T08:27:17;10.80;99.90
33699;DHT22;20032;52.436;13.312;2024-02-15T08:29:43;10.80;99.90
33699;DHT22;20032;52.436;13.312;2024-02-15T08:32:08;10.70;99.90
33699;DHT22;20032;52.436;13.312;2024-02-15T08:34:34;10.80;99.90
33699;DHT22;20032;52.436;13.312;2024-02-15T08:36:59;10.80;99.90
33699;DHT22;20032;52.436;13.312;2024-02-15T08:39:25;10.80;99.90
33699;DHT22;20032;52.436;13.312;2024-02-15T08:41:50;10.80;99.90
33699;DHT22;20032;52.436;13.312;2024-02-15T08:44:18;10.90;99.90
33699;DHT22;20032;52.436;13.312;2024-02-15T08:46:44;10.80;99.90
33699;DHT22;20032;52.436;13.312;2024-02-15T08:49:10;10.80;99.90
33699;DHT22;20032;52.436;13.312;2024-02-15T08:51:39;10.90;99.90
33699;DHT22;20032;52.436;13.312;2024-02-15T08:54:04;10.80;99.90
33699;DHT22;20032;52.436;13.312;2024-02-15T08:56:30;10.80;99.90
33699;DHT22;20032;52.436;13.312;2024-02-15T08:58:55;10.90;99.90
33699;DHT22;20032;52.436;13.312;2024-02-15T09:01:23;10.90;99.90
33699;DHT22;20032;52.436;13.312;2024-02-15T09:03:48;11.00;99.90
33699;DHT22;20032;52.436;13.312;2024-02-15T09:06:14;11.10;99.90
33699;DHT22;20032;52.436;13.312;2024-02-15T09:08:40;11.10;99.90
33699;DHT22;20032;52.436;13.312;2024-02-15T09:11:05;11.10;99.90
33699;DHT22;20032;52.436;13.312;2024-02-15T09:13:31;11.20;99.90
33699;DHT22;20032;52.436;13.312;2024-02-15T09:15:58;11.20;99.90
33699;DHT22;20032;52.436;13.312;2024-02-15T09:18:24;11.20;99.90
33699;DHT22;20032;52.436;13.312;2024-02-15T09:20:49;11.30;99.90
33699;DHT22;20032;52.436;13.312;2024-02-15T09:23:21;11.30;99.90
33699;DHT22;20032;52.436;13.312;2024-02-15T09:25:49;11.30;99.90
33699;DHT22;20032;52.436;13.312;2024-02-15T09:28:17;11.30;99.90
33699;DHT22;20032;52.436;13.312;2024-02-15T09:30:47;11.40;99.90
33699;DHT22;20032;52.436;13.312;2024-02-15T09:33:13;11.40;99.90
33699;DHT22;20032;52.436;13.312;2024-02-15T09:35:38;11.40;99.90
33699;DHT22;20032;52.436;13.312;2024-02-15T09:38:04;11.40;99.90
33699;DHT22;20032;52.436;13.312;2024-02-15T09:40:31;11.40;99.90
33699;DHT22;20032;52.436;13.312;2024-02-15T09:42:57;11.40;99.90
33699;DHT22;20032;52.436;13.312;2024-02-15T09:45:24;11.40;99.90
33699;DHT22;20032;52.436;13.312;2024-02-15T09:47:50;11.40;99.90
33699;DHT22;20032;52.436;13.312;2024-02-15T09:50:18;11.40;99.90
33699;DHT22;20032;52.436;13.312;2024-02-15T09:52:45;11.50;99.90
33699;DHT22;20032;52.436;13.312;2024-02-15T09:55:12;11.50;99.90
33699;DHT22;20032;52.436;13.312;2024-02-15T09:57:40;11.50;99.90
33699;DHT22;20032;52.436;13.312;2024-02-15T10:02:36;11.60;99.90
33699;DHT22;20032;52.436;13.312;2024-02-15T10:05:03;11.60;99.90
33699;DHT22;20032;52.436;13.312;2024-02-15T10:07:29;11.70;99.90
33699;DHT22;20032;52.436;13.312;2024-02-15T10:09:55;11.70;99.90
33699;DHT22;20032;52.436;13.312;2024-02-15T10:12:20;11.70;99.90
33699;DHT22;20032;52.436;13.312;2024-02-15T10:14:48;11.70;99.90
33699;DHT22;20032;52.436;13.312;2024-02-15T10:17:15;11.70;99.90
33699;DHT22;20032;52.436;13.312;2024-02-15T10:19:42;11.80;99.90
33699;DHT22;20032;52.436;13.312;2024-02-15T10:22:10;11.80;99.90
33699;DHT22;20032;52.436;13.312;2024-02-15T10:24:37;11.90;99.90
33699;DHT22;20032;52.436;13.312;2024-02-15T10:27:05;11.90;99.90
33699;DHT22;20032;52.436;13.312;2024-02-15T10:29:33;12.00;99.90
33699;DHT22;20032;52.436;13.312;2024-02-15T10:32:03;12.00;99.90
33699;DHT22;20032;52.436;13.312;2024-02-15T10:34:30;12.10;99.90
33699;DHT22;20032;52.436;13.312;2024-02-15T10:37:13;12.10;99.90
33699;DHT22;20032;52.436;13.312;2024-02-15T10:39:39;12.20;99.90
33699;DHT22;20032;52.436;13.312;2024-02-15T10:42:07;12.20;99.90
33699;DHT22;20032;52.436;13.312;2024-02-15T10:44:36;12.30;99.90
33699;DHT22;20032;52.436;13.312;2024-02-15T10:47:04;12.40;99.90
33699;DHT22;20032;52.436;13.312;2024-02-15T10:49:32;12.30;99.90
33699;DHT22;20032;52.436;13.312;2024-02-15T10:52:00;12.40;99.90
33699;DHT22;20032;52.436;13.312;2024-02-15T10:54:52;12.40;99.90
33699;DHT22;20032;52.436;13.312;2024-02-15T10:57:20;12.40;99.90
33699;DHT22;20032;52.436;13.312;2024-02-15T11:02:31;12.40;99.90
33699;DHT22;20032;52.436;13.312;2024-02-15T11:05:03;12.40;99.90
33699;DHT22;20032;52.436;13.312;2024-02-15T11:07:31;12.40;99.90
33699;DHT22;20032;52.436;13.312;2024-02-15T11:09:57;12.50;99.90
33699;DHT22;20032;52.436;13.312;2024-02-15T11:12:24;12.50;99.90
33699;DHT22;20032;52.436;13.312;2024-02-15T11:14:52;12.60;99.90
33699;DHT22;20032;52.436;13.312;2024-02-15T11:20:06;12.60;99.90
33699;DHT22;20032;52.436;13.312;2024-02-15T11:22:35;12.60;99.90
33699;DHT22;20032;52.436;13.312;2024-02-15T11:25:03;12.60;99.90
33699;DHT22;20032;52.436;13.312;2024-02-15T11:27:38;12.70;99.90
33699;DHT22;20032;52.436;13.312;2024-02-15T11:30:05;12.80;99.90
33699;DHT22;20032;52.436;13.312;2024-02-15T11:32:42;12.90;99.90
33699;DHT22;20032;52.436;13.312;2024-02-15T11:35:11;12.90;99.90
33699;DHT22;20032;52.436;13.312;2024-02-15T11:37:54;12.90;99.90
33699;DHT22;20032;52.436;13.312;2024-02-15T11:40:26;13.00;99.90
33699;DHT22;20032;52.436;13.312;2024-02-15T11:42:56;13.00;99.90
33699;DHT22;20032;52.436;13.312;2024-02-15T11:45:25;13.00;99.90
33699;DHT22;20032;52.436;13.312;2024-02-15T11:47:52;12.90;99.90
33699;DHT22;20032;52.436;13.312;2024-02-15T11:50:21;12.90;99.90
33699;DHT22;20032;52.436;13.312;2024-02-15T11:52:48;12.80;99.90
33699;DHT22;20032;52.436;13.312;2024-02-15T11:55:18;12.80;99.90
33699;DHT22;20032;52.436;13.312;2024-02-15T11:58:02;12.70;99.90
33699;DHT22;20032;52.436;13.312;2024-02-15T12:00:42;12.70;99.90
33699;DHT22;20032;52.436;13.312;2024-02-15T12:03:28;12.70;99.90
33699;DHT22;20032;52.436;13.312;2024-02-15T12:06:17;12.70;99.90
33699;DHT22;20032;52.436;13.312;2024-02-15T12:09:03;12.70;99.90
33699;DHT22;20032;52.436;13.312;2024-02-15T12:11:57;12.70;99.90
33699;DHT22;20032;52.436;13.312;2024-02-15T12:14:43;12.70;99.90
33699;DHT22;20032;52.436;13.312;2024-02-15T12:17:28;12.70;99.90
33699;DHT22;20032;52.436;13.312;2024-02-15T12:20:14;12.70;99.90
33699;DHT22;20032;52.436;13.312;2024-02-15T12:22:43;12.70;99.90
33699;DHT22;20032;52.436;13.312;2024-02-15T12:25:14;12.70;99.90
33699;DHT22;20032;52.436;13.312;2024-02-15T12:27:42;12.80;99.90
33699;DHT22;20032;52.436;13.312;2024-02-15T12:30:13;12.80;99.90
33699;DHT22;20032;52.436;13.312;2024-02-15T12:32:39;12.90;99.90
33699;DHT22;20032;52.436;13.312;2024-02-15T12:35:21;12.90;99.90
33699;DHT22;20032;52.436;13.312;2024-02-15T12:38:00;13.10;99.90
33699;DHT22;20032;52.436;13.312;2024-02-15T12:40:35;13.10;99.90
33699;DHT22;20032;52.436;13.312;2024-02-15T12:43:05;13.10;99.90
33699;DHT22;20032;52.436;13.312;2024-02-15T12:45:32;13.20;99.90
33699;DHT22;20032;52.436;13.312;2024-02-15T12:47:58;13.30;99.90
33699;DHT22;20032;52.436;13.312;2024-02-15T12:50:27;13.30;99.90
33699;DHT22;20032;52.436;13.312;2024-02-15T12:52:54;13.40;99.90
33699;DHT22;20032;52.436;13.312;2024-02-15T12:55:22;13.50;99.90
33699;DHT22;20032;52.436;13.312;2024-02-15T12:57:51;13.60;99.90
33699;DHT22;20032;52.436;13.312;2024-02-15T13:00:20;13.70;99.90
33699;DHT22;20032;52.436;13.312;2024-02-15T13:02:48;13.60;99.90
33699;DHT22;20032;52.436;13.312;2024-02-15T13:05:17;13.70;99.90
33699;DHT22;20032;52.436;13.312;2024-02-15T13:07:45;13.70;99.90
33699;DHT22;20032;52.436;13.312;2024-02-15T13:10:11;13.70;99.90
33699;DHT22;20032;52.436;13.312;2024-02-15T13:12:37;13.70;99.90
33699;DHT22;20032;52.436;13.312;2024-02-15T13:15:04;13.70;99.90
33699;DHT22;20032;52.436;13.312;2024-02-15T13:17:31;13.70;99.90
33699;DHT22;20032;52.436;13.312;2024-02-15T13:19:57;13.70;99.90
33699;DHT22;20032;52.436;13.312;2024-02-15T13:22:31;13.80;99.90
33699;DHT22;20032;52.436;13.312;2024-02-15T13:24:57;13.80;99.90
33699;DHT22;20032;52.436;13.312;2024-02-15T13:27:23;13.80;99.90
33699;DHT22;20032;52.436;13.312;2024-02-15T13:29:49;13.80;99.90
33699;DHT22;20032;52.436;13.312;2024-02-15T13:32:15;13.80;99.90
33699;DHT22;20032;52.436;13.312;2024-02-15T13:34:42;13.70;99.90
33699;DHT22;20032;52.436;13.312;2024-02-15T13:37:08;13.70;99.90
33699;DHT22;20032;52.436;13.312;2024-02-15T13:39:33;13.70;99.90
33699;DHT22;20032;52.436;13.312;2024-02-15T13:42:00;13.70;99.90
33699;DHT22;20032;52.436;13.312;2024-02-15T13:44:26;13.70;99.90
33699;DHT22;20032;52.436;13.312;2024-02-15T13:46:52;13.70;99.90
33699;DHT22;20032;52.436;13.312;2024-02-15T13:49:21;13.70;99.90
33699;DHT22;20032;52.436;13.312;2024-02-15T13:51:47;13.70;99.90
33699;DHT22;20032;52.436;13.312;2024-02-15T13:54:12;13.70;99.90
33699;DHT22;20032;52.436;13.312;2024-02-15T13:56:38;13.70;99.90
33699;DHT22;20032;52.436;13.312;2024-02-15T13:59:05;13.80;99.90
33699;DHT22;20032;52.436;13.312;2024-02-15T14:01:31;13.70;99.90
33699;DHT22;20032;52.436;13.312;2024-02-15T14:03:56;13.70;99.90
33699;DHT22;20032;52.436;13.312;2024-02-15T14:06:22;13.70;99.90
33699;DHT22;20032;52.436;13.312;2024-02-15T14:08:47;13.60;99.90
33699;DHT22;20032;52.436;13.312;2024-02-15T14:11:13;13.70;99.90
33699;DHT22;20032;52.436;13.312;2024-02-15T14:13:38;13.70;99.90
33699;DHT22;20032;52.436;13.312;2024-02-15T14:16:05;13.70;99.90
33699;DHT22;20032;52.436;13.312;2024-02-15T14:18:33;13.70;99.90
33699;DHT22;20032;52.436;13.312;2024-02-15T14:20:59;13.70;99.90
33699;DHT22;20032;52.436;13.312;2024-02-15T14:23:25;13.80;99.90
33699;DHT22;20032;52.436;13.312;2024-02-15T14:25:53;13.70;99.90
33699;DHT22;20032;52.436;13.312;2024-02-15T14:28:19;13.70;99.90
33699;DHT22;20032;52.436;13.312;2024-02-15T14:30:45;13.70;99.90
33699;DHT22;20032;52.436;13.312;2024-02-15T14:33:30;13.70;99.90
33699;DHT22;20032;52.436;13.312;2024-02-15T14:35:57;13.70;99.90
33699;DHT22;20032;52.436;13.312;2024-02-15T14:38:24;13.70;99.90
33699;DHT22;20032;52.436;13.312;2024-02-15T14:40:50;13.70;99.90
33699;DHT22;20032;52.436;13.312;2024-02-15T14:43:19;13.60;99.90
33699;DHT22;20032;52.436;13.312;2024-02-15T14:45:46;13.60;99.90
33699;DHT22;20032;52.436;13.312;2024-02-15T14:48:13;13.60;99.90
33699;DHT22;20032;52.436;13.312;2024-02-15T14:50:40;13.60;99.90
33699;DHT22;20032;52.436;13.312;2024-02-15T14:53:05;13.60;99.90
33699;DHT22;20032;52.436;13.312;2024-02-15T14:55:33;13.50;99.90
33699;DHT22;20032;52.436;13.312;2024-02-15T14:57:59;13.50;99.90
33699;DHT22;20032;52.436;13.312;2024-02-15T15:00:24;13.50;99.90
33699;DHT22;20032;52.436;13.312;2024-02-15T15:02:52;13.50;99.90
33699;DHT22;20032;52.436;13.312;2024-02-15T15:05:18;13.40;99.90
33699;DHT22;20032;52.436;13.312;2024-02-15T15:08:04;13.40;99.90
33699;DHT22;20032;52.436;13.312;2024-02-15T15:10:49;13.40;99.90
33699;DHT22;20032;52.436;13.312;2024-02-15T15:13:35;13.30;99.90
33699;DHT22;20032;52.436;13.312;2024-02-15T15:16:01;13.30;99.90
33699;DHT22;20032;52.436;13.312;2024-02-15T15:18:28;13.30;99.90
33699;DHT22;20032;52.436;13.312;2024-02-15T15:20:55;13.30;99.90
33699;DHT22;20032;52.436;13.312;2024-02-15T15:23:20;13.40;99.90
33699;DHT22;20032;52.436;13.312;2024-02-15T15:25:47;13.40;99.90
33699;DHT22;20032;52.436;13.312;2024-02-15T15:28:12;13.40;99.90
33699;DHT22;20032;52.436;13.312;2024-02-15T15:30:39;13.30;99.90
33699;DHT22;20032;52.436;13.312;2024-02-15T15:33:05;13.30;99.90
33699;DHT22;20032;52.436;13.312;2024-02-15T15:35:32;13.20;99.90